Home > Products > Valid Products > MTR

000
SAUS42 KCHS 011757
MTRNBC
METAR KNBC 011756Z AUTO 15010G16KT 10SM BKN041 19/10 A3019 RMK AO2
SLP223 T01890100 10200 20033 58035 $





000
SAUS42 KCHS 011657
MTRNBC
METAR KNBC 011656Z AUTO 15010G15KT 10SM CLR 18/09 A3024 RMK AO2
SLP239 T01830094 $





000
SAUS42 KCHS 011657
MTRNBC
METAR KNBC 011656Z AUTO 15010G15KT 10SM CLR 18/09 A3024 RMK AO2
SLP239 T01830094 $





000
SAUS42 KCHS 011557
MTRNBC
METAR KNBC 011556Z AUTO 15007KT 10SM CLR 16/08 A3028 RMK AO2 SLP253
T01610083 $





000
SAUS42 KCHS 011557
MTRNBC
METAR KNBC 011556Z AUTO 15007KT 10SM CLR 16/08 A3028 RMK AO2 SLP253
T01610083 $





000
SAUS42 KCHS 011458
MTRNBC
METAR KNBC 011456Z AUTO 12007KT 10SM CLR 14/08 A3029 RMK AO2 SLP258
T01440078 56002





000
SAUS42 KCHS 011357
MTRNBC
METAR KNBC 011356Z AUTO 00000KT 10SM CLR 10/06 A3029 RMK AO2 SLP258
T01000061





000
SAUS42 KCHS 011257
MTRNBC
METAR KNBC 011256Z AUTO 00000KT 10SM CLR 06/04 A3030 RMK AO2 SLP260
T00610044





000
SAUS42 KCHS 011158
MTRNBC
METAR KNBC 011156Z AUTO 00000KT 10SM CLR 04/03 A3030 RMK AO2 SLP260
T00390028 10050 20028 53001





000
SAUS42 KCHS 011057
MTRNBC
METAR KNBC 011056Z AUTO 00000KT 10SM CLR 04/03 A3029 RMK AO2 SLP256
T00390028 $





000
SAUS42 KCHS 010957
MTRNBC
METAR KNBC 010956Z AUTO 00000KT 10SM CLR 04/03 A3029 RMK AO2 SLP257
T00440033 $





000
SAUS42 KCHS 010857
MTRNBC
METAR KNBC 010856Z AUTO 00000KT 10SM CLR 04/03 A3030 RMK AO2 SLP259
T00440028 56009 $





000
SAUS42 KCHS 010757
MTRNBC
METAR KNBC 010756Z AUTO 00000KT 10SM CLR 04/02 A3030 RMK AO2 SLP262
T00390022 $





000
SAUS42 KCHS 010657
MTRNBC
METAR KNBC 010656Z AUTO 00000KT 10SM CLR 03/01 A3031 RMK AO2 SLP263
T00330011 $





000
SAUS42 KCHS 010657
MTRNBC
METAR KNBC 010656Z AUTO 00000KT 10SM CLR 03/01 A3031 RMK AO2 SLP263
T00330011 $





000
SAUS42 KCHS 010557
MTRNBC
METAR KNBC 010556Z AUTO 00000KT 10SM CLR 04/01 A3032 RMK AO2 SLP268
T00390011 10078 20039 58014 $





000
SAUS42 KCHS 010557
MTRNBC
METAR KNBC 010556Z AUTO 00000KT 10SM CLR 04/01 A3032 RMK AO2 SLP268
T00390011 10078 20039 58014 $





000
SAUS42 KCHS 010457
MTRNBC
METAR KNBC 010456Z AUTO 00000KT 10SM CLR 05/00 A3033 RMK AO2 SLP272
T00500000 401221011 $





000
SAUS42 KCHS 010457
MTRNBC
METAR KNBC 010456Z AUTO 00000KT 10SM CLR 05/00 A3033 RMK AO2 SLP272
T00500000 401221011 $





000
SAUS42 KCHS 010357
MTRNBC
METAR KNBC 010356Z AUTO 00000KT 10SM CLR 06/01 A3035 RMK AO2 SLP278
T00560006 $





000
SAUS42 KCHS 010357
MTRNBC
METAR KNBC 010356Z AUTO 00000KT 10SM CLR 06/01 A3035 RMK AO2 SLP278
T00560006 $





000
SAUS42 KCHS 010257
MTRNBC
METAR KNBC 010256Z AUTO 00000KT 10SM CLR 06/00 A3036 RMK AO2 SLP281
T00610000 58001 $





000
SAUS42 KCHS 010257
MTRNBC
METAR KNBC 010256Z AUTO 00000KT 10SM CLR 06/00 A3036 RMK AO2 SLP281
T00610000 58001 $





000
SAUS42 KCHS 010157
MTRNBC
METAR KNBC 010156Z AUTO 23003KT 10SM CLR 05/M01 A3036 RMK AO2 SLP282
T00501006 $





000
SAUS42 KCHS 010157
MTRNBC
METAR KNBC 010156Z AUTO 23003KT 10SM CLR 05/M01 A3036 RMK AO2 SLP282
T00501006 $





000
SAUS42 KCHS 010057
MTRNBC
METAR KNBC 010056Z AUTO 20003KT 10SM CLR 05/M02 A3037 RMK AO2 SLP283
T00501017 $





000
SAUS42 KCHS 010057
MTRNBC
METAR KNBC 010056Z AUTO 20003KT 10SM CLR 05/M02 A3037 RMK AO2 SLP283
T00501017 $





000
SAUS42 KCHS 312357
MTRNBC
METAR KNBC 312356Z AUTO 18004KT 10SM CLR 08/M01 A3037 RMK AO2 SLP283
T00781006 10122 20078 53008 $





000
SAUS42 KCHS 312257
MTRNBC
METAR KNBC 312256Z AUTO 18004KT 10SM CLR 09/M01 A3035 RMK AO2 SLP279
T00891006 $





000
SAUS42 KCHS 312157
MTRNBC
METAR KNBC 312156Z AUTO 20007KT 10SM CLR 11/M02 A3035 RMK AO2 SLP277
T01111022 $





000
SAUS42 KCHS 312157
MTRNBC
METAR KNBC 312156Z AUTO 20007KT 10SM CLR 11/M02 A3035 RMK AO2 SLP277
T01111022 $





000
SAUS42 KCHS 312057
MTRNBC
METAR KNBC 312056Z AUTO 00000KT 10SM CLR 12/M10 A3034 RMK AO2 SLP275
T01171100 56018 $





000
SAUS42 KCHS 311957
MTRNBC
METAR KNBC 311956Z AUTO 15004KT 10SM CLR 12/M09 A3035 RMK AO2 SLP278
T01171089 $





000
SAUS42 KCHS 311857
MTRNBC
METAR KNBC 311856Z AUTO VRB03KT 10SM CLR 12/M08 A3037 RMK AO2 SLP283
T01171083 $





000
SAUS42 KCHS 311757
MTRNBC
METAR KNBC 311756Z AUTO VRB03KT 10SM CLR 10/M09 A3040 RMK AO2 SLP293
T01001089 10106 21011 58002 $





000
SAUS42 KCHS 311657
MTRNBC
METAR KNBC 311656Z AUTO 10006KT 10SM CLR 09/M08 A3041 RMK AO2 SLP299
T00891078 $





000
SAUS42 KCHS 311557
MTRNBC
METAR KNBC 311556Z AUTO 09006KT 10SM CLR 08/M07 A3043 RMK AO2 SLP305
T00781067 $





000
SAUS42 KCHS 311457
MTRNBC
METAR KNBC 311456Z AUTO VRB06KT 10SM CLR 05/M07 A3040 RMK AO2 SLP296
T00501072 53017 $





000
SAUS42 KCHS 311357
MTRNBC
METAR KNBC 311356Z AUTO 05008KT 10SM CLR 03/M07 A3039 RMK AO2 SLP289
T00331067 $





000
SAUS42 KCHS 311257
MTRNBC
METAR KNBC 311256Z AUTO 02005KT 10SM CLR 01/M05 A3037 RMK AO2 SLP284
T00061050 $





000
SAUS42 KCHS 311157
MTRNBC
METAR KNBC 311156Z AUTO 02005KT 10SM CLR 00/M05 A3035 RMK AO2 SLP279
T00001050 10044 21011 51009 $





000
SAUS42 KCHS 311057
MTRNBC
METAR KNBC 311056Z AUTO 02008KT 10SM CLR 01/M04 A3035 RMK AO2 SLP276
T00061044 $





000
SAUS42 KCHS 310957
MTRNBC
METAR KNBC 310956Z AUTO 35005KT 10SM CLR 01/M04 A3034 RMK AO2 SLP275
T00111039 $





000
SAUS42 KCHS 310857
MTRNBC
METAR KNBC 310856Z AUTO 02006KT 10SM CLR 01/M05 A3033 RMK AO2 SLP270
T00061050 51009 $





000
SAUS42 KCHS 310757
MTRNBC
METAR KNBC 310756Z AUTO 01004KT 10SM CLR 02/M04 A3033 RMK AO2 SLP269
T00171039 $





000
SAUS42 KCHS 310657
MTRNBC
METAR KNBC 310656Z AUTO 00000KT 10SM CLR 03/M03 A3032 RMK AO2 SLP267
T00281033 $





000
SAUS42 KCHS 310557
MTRNBC
METAR KNBC 310556Z AUTO 35004KT 10SM CLR 03/M03 A3030 RMK AO2 SLP260
T00331033 10100 20022 51007 $





000
SAUS42 KCHS 310457
MTRNBC
METAR KNBC 310456Z AUTO 35005KT 10SM CLR 05/M03 A3030 RMK AO2 SLP260
T00501033 401610039





000
SAUS42 KCHS 310357
MTRNBC
METAR KNBC 310356Z AUTO 36005KT 10SM CLR 06/M03 A3029 RMK AO2 SLP258
T00561033





000
SAUS42 KCHS 310257
MTRNBC
METAR KNBC 310256Z AUTO 35005KT 10SM CLR 05/01 A3028 RMK AO2 SLP253
T00500006 51018





000
SAUS42 KCHS 310157
MTRNBC
METAR KNBC 310156Z AUTO 00000KT 10SM CLR 06/M01 A3026 RMK AO2 SLP248
T00561011





000
SAUS42 KCHS 310057
MTRNBC
METAR KNBC 310056Z AUTO 35004KT 10SM CLR 07/00 A3025 RMK AO2 SLP242
T00720000





000
SAUS42 KCHS 302357
MTRNBC
METAR KNBC 302356Z AUTO 35006KT 10SM CLR 10/M01 A3022 RMK AO2 SLP235
LAST T01001011 10161 20089 53026





000
SAUS42 KCHS 302309
MTRNBC
SPECI KNBC 302307Z AUTO 32006KT 10SM CLR 12/M02 A3020 RMK AO2 LAST
T01221017





000
SAUS42 KCHS 302257
MTRNBC
METAR KNBC 302256Z 33008KT 10SM CLR 12/M02 A3020 RMK AO2 SLP225
T01221017





000
SAUS42 KCHS 302157
MTRNBC
METAR KNBC 302156Z 32011KT 10SM CLR 14/M02 A3017 RMK AO2 SLP217
T01441017





000
SAUS42 KCHS 302057
MTRNBC
METAR KNBC 302056Z 34010KT 10SM CLR 16/M01 A3015 RMK AO2 SLP209
T01561006 55001





000
SAUS42 KCHS 301957
MTRNBC
METAR KNBC 301956Z 32011KT 10SM CLR 16/01 A3014 RMK AO2 SLP206
T01560006





000
SAUS42 KCHS 301857
MTRNBC
METAR KNBC 301856Z 31011KT 10SM CLR 15/01 A3014 RMK AO2 SLP206
T01500011





000
SAUS42 KCHS 301757
MTRNBC
METAR KNBC 301756Z 33012G23KT 10SM FEW250 15/02 A3015 RMK AO2 SLP210
T01500022 10150 20117 50002





000
SAUS42 KCHS 301657
MTRNBC
METAR KNBC 301656Z 33014G22KT 10SM FEW250 13/03 A3016 RMK AO2 SLP212
T01330028





000
SAUS42 KCHS 301557
MTRNBC
METAR KNBC 301556Z 32016KT 10SM FEW050 13/03 A3015 RMK AO2 SLP211
T01330033





000
SAUS42 KCHS 301457
MTRNBC
METAR KNBC 301456Z 33015G22KT 10SM FEW050 12/03 A3015 RMK AO2 PK WND
32026/1403 SLP209 T01220033 51025





000
SAUS42 KCHS 301357
MTRNBC
METAR KNBC 301356Z 32020G26KT 10SM SCT050 BKN250 12/05 A3013 RMK AO2
PK WND 33026/1356 SLP202 T01220050





000
SAUS42 KCHS 301257
MTRNBC
METAR KNBC 301256Z 29009KT 10SM FEW070 BKN200 12/07 A3009 RMK AO2
SLP190 T01170072





000
SAUS42 KCHS 301248
MTRNBC
METAR KNBC 301156Z COR 27010KT 10SM FEW070 BKN180 12/07 A3007 RMK
AO2 SLP183 T01220072 10128 20106 53004





000
SAUS42 KCHS 301158
MTRNBC
METAR KNBC 301156Z 27010KT 10SM CLR 12/07 A3007 RMK AO2 SLP183
T01220072 10128 20106 53004





000
SAUS42 KCHS 301146
MTRNBC
SPECI KNBC 301144Z 27009KT 10SM FEW070 12/07 A3007 RMK AO2 FIRST
T01220067





000
SAUS42 KCHS 301057
MTRNBC
METAR KNBC 301056Z AUTO 26011KT 10SM BKN060 OVC090 13/07 A3005 RMK
AO2 SLP176 T01280067





000
SAUS42 KCHS 300957
MTRNBC
METAR KNBC 300956Z AUTO 24011KT 10SM OVC090 12/06 A3005 RMK AO2
SLP176 T01220056





000
SAUS42 KCHS 300858
MTRNBC
METAR KNBC 300856Z AUTO 23008KT 10SM OVC060 11/05 A3006 RMK AO2
SLP179 T01110050 58023





000
SAUS42 KCHS 300758
MTRNBC
METAR KNBC 300756Z AUTO 21006KT 10SM FEW060 OVC100 11/06 A3008 RMK
AO2 SLP187 T01110061





000
SAUS42 KCHS 300657
MTRNBC
METAR KNBC 300656Z AUTO 22005KT 10SM SCT085 OVC110 11/07 A3011 RMK
AO2 SLP195 T01110072





000
SAUS42 KCHS 300601
MTRNBC
METAR KNBC 300556Z AUTO 22007KT 10SM BKN070 OVC100 11/08 A3013 RMK
AO2 SLP202 60000 T01060078 10106 20094 58016





000
SAUS42 KCHS 300457
MTRNBC
METAR KNBC 300456Z AUTO 23007KT 10SM OVC110 11/08 A3016 RMK AO2
RAB00E09 SLP214 P0000 T01060078 401501011





000
SAUS42 KCHS 300357
MTRNBC
METAR KNBC 300356Z AUTO 21003KT 10SM FEW100 FEW110 11/08 A3018 RMK
AO2 SLP219 T01060078





000
SAUS42 KCHS 300257
MTRNBC
METAR KNBC 300256Z 19004KT 10SM OVC150 10/07 A3017 RMK AO2 SLP217
T01000072 58007





000
SAUS42 KCHS 300157
MTRNBC
METAR KNBC 300156Z 18007KT 10SM BKN150 10/07 A3017 RMK AO2 SLP217
T01000072





000
SAUS42 KCHS 300057
MTRNBC
METAR KNBC 300056Z 19003KT 10SM BKN150 09/06 A3019 RMK AO2 SLP225
T00940061





000
SAUS42 KCHS 292358
MTRNBC
METAR KNBC 292356Z 18005KT 10SM BKN150 10/06 A3019 RMK AO2 SLP224
T01000061 10150 20100 57015





000
SAUS42 KCHS 292257
MTRNBC
METAR KNBC 292256Z 17006KT 10SM BKN150 BKN250 11/06 A3020 RMK AO2
SLP228 T01110061





000
SAUS42 KCHS 292157
MTRNBC
METAR KNBC 292156Z 17005KT 10SM BKN100 BKN200 12/06 A3023 RMK AO2
SLP235 T01220056





000
SAUS42 KCHS 292057
MTRNBC
METAR KNBC 292056Z 19008KT 10SM BKN100 BKN200 13/05 A3024 RMK AO2
SLP239 T01330050 56020





000
SAUS42 KCHS 291957
MTRNBC
METAR KNBC 291956Z 17008KT 10SM BKN180 BKN250 14/05 A3024 RMK AO2
SLP241 T01390050





000
SAUS42 KCHS 291857
MTRNBC
METAR KNBC 291856Z 17005KT 10SM BKN100 BKN250 15/04 A3027 RMK AO2
SLP249 T01500044





    US Dept of Commerce
    National Oceanic and Atmospheric Administration
    National Weather Service
    1325 East West Highway
    Silver Spring, MD 20910
    Page Author: NWS Internet Services Team
Disclaimer
Information Quality
Credits
Glossary
Privacy Policy
Freedom of Information Act (FOIA)
About Us
Career Opportunities